sensor_id;sensor_type;location;lat;lon;timestamp;temperature;humidity
909;DHT22;441;51.192;6.788;2022-08-06T00:00:04;23.50;58.10
909;DHT22;441;51.192;6.788;2022-08-06T00:02:31;23.50;58.20
909;DHT22;441;51.192;6.788;2022-08-06T00:05:00;23.50;58.30
909;DHT22;441;51.192;6.788;2022-08-06T00:07:29;23.50;58.30
909;DHT22;441;51.192;6.788;2022-08-06T00:09:56;23.40;58.40
909;DHT22;441;51.192;6.788;2022-08-06T00:12:22;23.40;58.40
909;DHT22;441;51.192;6.788;2022-08-06T00:14:49;23.40;58.40
909;DHT22;441;51.192;6.788;2022-08-06T00:17:16;23.40;58.60
909;DHT22;441;51.192;6.788;2022-08-06T00:19:45;23.40;58.60
909;DHT22;441;51.192;6.788;2022-08-06T00:22:12;23.40;58.80
909;DHT22;441;51.192;6.788;2022-08-06T00:24:41;23.40;58.80
909;DHT22;441;51.192;6.788;2022-08-06T00:27:08;23.40;58.90
909;DHT22;441;51.192;6.788;2022-08-06T00:29:34;23.50;59.10
909;DHT22;441;51.192;6.788;2022-08-06T00:32:01;23.40;59.10
909;DHT22;441;51.192;6.788;2022-08-06T00:34:28;23.40;59.20
909;DHT22;441;51.192;6.788;2022-08-06T00:36:55;23.40;59.40
909;DHT22;441;51.192;6.788;2022-08-06T00:39:22;23.40;59.40
909;DHT22;441;51.192;6.788;2022-08-06T00:41:50;23.40;59.50
909;DHT22;441;51.192;6.788;2022-08-06T00:44:17;23.40;59.50
909;DHT22;441;51.192;6.788;2022-08-06T00:46:44;23.40;59.80
909;DHT22;441;51.192;6.788;2022-08-06T00:49:12;23.30;59.80
909;DHT22;441;51.192;6.788;2022-08-06T00:51:39;23.30;59.70
909;DHT22;441;51.192;6.788;2022-08-06T00:54:06;23.30;59.80
909;DHT22;441;51.192;6.788;2022-08-06T00:56:33;23.20;60.00
909;DHT22;441;51.192;6.788;2022-08-06T00:59:02;23.20;60.10
909;DHT22;441;51.192;6.788;2022-08-06T01:01:29;23.20;60.40
909;DHT22;441;51.192;6.788;2022-08-06T01:03:56;23.20;60.70
909;DHT22;441;51.192;6.788;2022-08-06T01:06:22;23.20;61.00
909;DHT22;441;51.192;6.788;2022-08-06T01:08:49;23.10;60.80
909;DHT22;441;51.192;6.788;2022-08-06T01:11:16;23.10;61.10
909;DHT22;441;51.192;6.788;2022-08-06T01:13:43;23.10;61.10
909;DHT22;441;51.192;6.788;2022-08-06T01:16:15;23.10;61.20
909;DHT22;441;51.192;6.788;2022-08-06T01:18:49;23.10;61.10
909;DHT22;441;51.192;6.788;2022-08-06T01:21:29;23.10;61.20
909;DHT22;441;51.192;6.788;2022-08-06T01:24:21;23.00;61.20
909;DHT22;441;51.192;6.788;2022-08-06T01:26:53;23.00;61.30
909;DHT22;441;51.192;6.788;2022-08-06T01:29:29;23.00;61.40
909;DHT22;441;51.192;6.788;2022-08-06T01:32:04;23.00;61.50
909;DHT22;441;51.192;6.788;2022-08-06T01:34:35;23.00;61.60
909;DHT22;441;51.192;6.788;2022-08-06T01:37:09;23.00;61.60
909;DHT22;441;51.192;6.788;2022-08-06T01:39:39;23.00;61.60
909;DHT22;441;51.192;6.788;2022-08-06T01:42:07;23.00;61.60
909;DHT22;441;51.192;6.788;2022-08-06T01:44:40;22.90;61.50
909;DHT22;441;51.192;6.788;2022-08-06T01:47:11;22.90;61.70
909;DHT22;441;51.192;6.788;2022-08-06T01:49:40;22.90;62.00
909;DHT22;441;51.192;6.788;2022-08-06T01:52:08;22.90;62.10
909;DHT22;441;51.192;6.788;2022-08-06T01:54:40;22.80;62.10
909;DHT22;441;51.192;6.788;2022-08-06T01:57:10;22.80;62.40
909;DHT22;441;51.192;6.788;2022-08-06T01:59:43;22.80;62.40
909;DHT22;441;51.192;6.788;2022-08-06T02:02:16;22.80;62.60
909;DHT22;441;51.192;6.788;2022-08-06T02:04:46;22.80;62.70
909;DHT22;441;51.192;6.788;2022-08-06T02:07:15;22.80;62.70
909;DHT22;441;51.192;6.788;2022-08-06T02:09:44;22.80;62.70
909;DHT22;441;51.192;6.788;2022-08-06T02:12:14;22.80;62.70
909;DHT22;441;51.192;6.788;2022-08-06T02:14:47;22.70;62.80
909;DHT22;441;51.192;6.788;2022-08-06T02:17:17;22.70;63.20
909;DHT22;441;51.192;6.788;2022-08-06T02:19:46;22.70;63.30
909;DHT22;441;51.192;6.788;2022-08-06T02:22:14;22.60;63.20
909;DHT22;441;51.192;6.788;2022-08-06T02:24:42;22.70;63.30
909;DHT22;441;51.192;6.788;2022-08-06T02:27:11;22.70;63.30
909;DHT22;441;51.192;6.788;2022-08-06T02:29:40;22.60;63.20
909;DHT22;441;51.192;6.788;2022-08-06T02:32:09;22.40;63.90
909;DHT22;441;51.192;6.788;2022-08-06T02:34:38;22.40;64.20
909;DHT22;441;51.192;6.788;2022-08-06T02:37:10;22.40;64.30
909;DHT22;441;51.192;6.788;2022-08-06T02:39:41;22.40;64.50
909;DHT22;441;51.192;6.788;2022-08-06T02:42:17;22.40;64.60
909;DHT22;441;51.192;6.788;2022-08-06T02:44:48;22.40;64.90
909;DHT22;441;51.192;6.788;2022-08-06T02:47:23;22.40;65.00
909;DHT22;441;51.192;6.788;2022-08-06T02:49:55;22.40;65.20
909;DHT22;441;51.192;6.788;2022-08-06T02:52:30;22.40;65.20
909;DHT22;441;51.192;6.788;2022-08-06T02:55:07;22.50;65.50
909;DHT22;441;51.192;6.788;2022-08-06T02:57:39;22.50;65.50
909;DHT22;441;51.192;6.788;2022-08-06T03:00:08;22.50;65.60
909;DHT22;441;51.192;6.788;2022-08-06T03:02:39;22.50;65.70
909;DHT22;441;51.192;6.788;2022-08-06T03:05:10;22.50;65.60
909;DHT22;441;51.192;6.788;2022-08-06T03:07:38;22.50;65.70
909;DHT22;441;51.192;6.788;2022-08-06T03:10:08;22.50;65.80
909;DHT22;441;51.192;6.788;2022-08-06T03:12:35;22.40;66.00
909;DHT22;441;51.192;6.788;2022-08-06T03:15:04;22.40;66.20
909;DHT22;441;51.192;6.788;2022-08-06T03:17:33;22.40;66.20
909;DHT22;441;51.192;6.788;2022-08-06T03:20:03;22.40;66.10
909;DHT22;441;51.192;6.788;2022-08-06T03:22:31;22.30;66.30
909;DHT22;441;51.192;6.788;2022-08-06T03:24:59;22.40;66.60
909;DHT22;441;51.192;6.788;2022-08-06T03:27:27;22.40;66.70
909;DHT22;441;51.192;6.788;2022-08-06T03:29:55;22.30;66.60
909;DHT22;441;51.192;6.788;2022-08-06T03:32:22;22.30;66.70
909;DHT22;441;51.192;6.788;2022-08-06T03:34:51;22.20;66.90
909;DHT22;441;51.192;6.788;2022-08-06T03:37:20;22.10;67.30
909;DHT22;441;51.192;6.788;2022-08-06T03:39:48;22.00;67.90
909;DHT22;441;51.192;6.788;2022-08-06T03:42:17;21.90;68.40
909;DHT22;441;51.192;6.788;2022-08-06T03:44:44;21.90;68.80
909;DHT22;441;51.192;6.788;2022-08-06T03:47:12;21.90;69.00
909;DHT22;441;51.192;6.788;2022-08-06T03:49:43;21.70;69.60
909;DHT22;441;51.192;6.788;2022-08-06T03:52:16;21.70;70.10
909;DHT22;441;51.192;6.788;2022-08-06T03:54:48;21.70;70.20
909;DHT22;441;51.192;6.788;2022-08-06T03:57:19;21.60;70.40
909;DHT22;441;51.192;6.788;2022-08-06T03:59:49;21.60;70.50
909;DHT22;441;51.192;6.788;2022-08-06T04:02:17;21.60;70.70
909;DHT22;441;51.192;6.788;2022-08-06T04:04:46;21.70;70.60
909;DHT22;441;51.192;6.788;2022-08-06T04:07:14;21.80;70.60
909;DHT22;441;51.192;6.788;2022-08-06T04:09:42;21.80;70.60
909;DHT22;441;51.192;6.788;2022-08-06T04:12:13;21.90;70.50
909;DHT22;441;51.192;6.788;2022-08-06T04:14:40;21.90;70.50
909;DHT22;441;51.192;6.788;2022-08-06T04:17:07;21.90;70.40
909;DHT22;441;51.192;6.788;2022-08-06T04:19:35;21.90;70.30
909;DHT22;441;51.192;6.788;2022-08-06T04:22:02;21.90;70.30
909;DHT22;441;51.192;6.788;2022-08-06T04:24:30;21.90;70.30
909;DHT22;441;51.192;6.788;2022-08-06T04:26:58;21.90;70.40
909;DHT22;441;51.192;6.788;2022-08-06T04:29:28;21.90;70.50
909;DHT22;441;51.192;6.788;2022-08-06T04:31:56;21.90;70.50
909;DHT22;441;51.192;6.788;2022-08-06T04:34:25;21.90;70.80
909;DHT22;441;51.192;6.788;2022-08-06T04:36:52;21.90;70.80
909;DHT22;441;51.192;6.788;2022-08-06T04:39:20;21.90;71.10
909;DHT22;441;51.192;6.788;2022-08-06T04:41:48;21.90;71.30
909;DHT22;441;51.192;6.788;2022-08-06T04:44:15;21.90;71.40
909;DHT22;441;51.192;6.788;2022-08-06T04:46:44;21.80;71.40
909;DHT22;441;51.192;6.788;2022-08-06T04:49:14;21.80;71.80
909;DHT22;441;51.192;6.788;2022-08-06T04:51:44;21.80;72.00
909;DHT22;441;51.192;6.788;2022-08-06T04:54:11;21.80;72.20
909;DHT22;441;51.192;6.788;2022-08-06T04:56:39;21.80;72.30
909;DHT22;441;51.192;6.788;2022-08-06T04:59:06;21.80;72.60
909;DHT22;441;51.192;6.788;2022-08-06T05:01:33;21.80;72.80
909;DHT22;441;51.192;6.788;2022-08-06T05:04:02;21.80;72.90
909;DHT22;441;51.192;6.788;2022-08-06T05:06:39;21.80;72.90
909;DHT22;441;51.192;6.788;2022-08-06T05:09:11;21.80;73.00
909;DHT22;441;51.192;6.788;2022-08-06T05:11:41;21.80;73.10
909;DHT22;441;51.192;6.788;2022-08-06T05:14:15;21.70;73.30
909;DHT22;441;51.192;6.788;2022-08-06T05:16:45;21.70;73.80
909;DHT22;441;51.192;6.788;2022-08-06T05:19:17;21.70;74.20
909;DHT22;441;51.192;6.788;2022-08-06T05:21:47;21.90;83.30
909;DHT22;441;51.192;6.788;2022-08-06T05:24:14;22.10;79.80
909;DHT22;441;51.192;6.788;2022-08-06T05:26:41;22.20;76.90
909;DHT22;441;51.192;6.788;2022-08-06T05:29:08;22.40;75.80
909;DHT22;441;51.192;6.788;2022-08-06T05:31:37;22.50;75.30
909;DHT22;441;51.192;6.788;2022-08-06T05:34:09;22.60;74.90
909;DHT22;441;51.192;6.788;2022-08-06T05:36:37;22.70;74.60
909;DHT22;441;51.192;6.788;2022-08-06T05:39:04;22.80;74.20
909;DHT22;441;51.192;6.788;2022-08-06T05:41:31;22.80;73.90
909;DHT22;441;51.192;6.788;2022-08-06T05:44:00;22.90;73.60
909;DHT22;441;51.192;6.788;2022-08-06T05:46:30;23.00;73.50
909;DHT22;441;51.192;6.788;2022-08-06T05:49:02;23.00;73.10
909;DHT22;441;51.192;6.788;2022-08-06T05:51:34;23.10;73.00
909;DHT22;441;51.192;6.788;2022-08-06T05:54:11;23.20;72.80
909;DHT22;441;51.192;6.788;2022-08-06T05:56:44;23.20;72.60
909;DHT22;441;51.192;6.788;2022-08-06T05:59:17;23.20;72.60
909;DHT22;441;51.192;6.788;2022-08-06T06:01:46;23.20;72.80
909;DHT22;441;51.192;6.788;2022-08-06T06:04:13;23.20;73.00
909;DHT22;441;51.192;6.788;2022-08-06T06:06:41;23.20;73.20
909;DHT22;441;51.192;6.788;2022-08-06T06:09:11;23.20;73.40
909;DHT22;441;51.192;6.788;2022-08-06T06:11:40;23.20;73.80
909;DHT22;441;51.192;6.788;2022-08-06T06:17:15;23.20;74.70
909;DHT22;441;51.192;6.788;2022-08-06T06:19:53;23.20;75.10
909;DHT22;441;51.192;6.788;2022-08-06T06:22:27;23.20;75.50
909;DHT22;441;51.192;6.788;2022-08-06T06:24:59;23.20;75.70
909;DHT22;441;51.192;6.788;2022-08-06T06:27:33;23.20;75.80
909;DHT22;441;51.192;6.788;2022-08-06T06:30:03;23.20;75.90
909;DHT22;441;51.192;6.788;2022-08-06T06:32:40;23.20;76.00
909;DHT22;441;51.192;6.788;2022-08-06T06:35:18;23.20;76.10
909;DHT22;441;51.192;6.788;2022-08-06T06:37:51;23.20;76.20
909;DHT22;441;51.192;6.788;2022-08-06T06:40:35;23.20;76.30
909;DHT22;441;51.192;6.788;2022-08-06T06:43:08;23.20;76.50
909;DHT22;441;51.192;6.788;2022-08-06T06:45:42;23.20;76.50
909;DHT22;441;51.192;6.788;2022-08-06T06:48:15;23.20;76.50
909;DHT22;441;51.192;6.788;2022-08-06T06:50:46;23.20;76.60
909;DHT22;441;51.192;6.788;2022-08-06T06:53:15;23.20;76.70
909;DHT22;441;51.192;6.788;2022-08-06T06:55:46;23.30;76.90
909;DHT22;441;51.192;6.788;2022-08-06T06:58:18;23.30;76.90
909;DHT22;441;51.192;6.788;2022-08-06T07:00:47;23.30;76.90
909;DHT22;441;51.192;6.788;2022-08-06T07:03:17;23.30;76.80
909;DHT22;441;51.192;6.788;2022-08-06T07:05:48;23.40;80.10
909;DHT22;441;51.192;6.788;2022-08-06T07:08:19;23.40;79.80
909;DHT22;441;51.192;6.788;2022-08-06T07:10:48;23.50;79.70
909;DHT22;441;51.192;6.788;2022-08-06T07:13:16;23.60;79.30
909;DHT22;441;51.192;6.788;2022-08-06T07:15:44;23.70;79.20
909;DHT22;441;51.192;6.788;2022-08-06T07:18:12;23.70;79.90
909;DHT22;441;51.192;6.788;2022-08-06T07:20:41;23.80;79.60
909;DHT22;441;51.192;6.788;2022-08-06T07:23:10;23.80;78.40
909;DHT22;441;51.192;6.788;2022-08-06T07:25:40;23.90;78.70
909;DHT22;441;51.192;6.788;2022-08-06T07:28:13;23.90;79.20
909;DHT22;441;51.192;6.788;2022-08-06T07:30:45;24.00;77.30
909;DHT22;441;51.192;6.788;2022-08-06T07:33:18;24.10;76.90
909;DHT22;441;51.192;6.788;2022-08-06T07:35:52;24.10;76.20
909;DHT22;441;51.192;6.788;2022-08-06T07:38:26;24.10;75.70
909;DHT22;441;51.192;6.788;2022-08-06T07:40:59;24.20;77.00
909;DHT22;441;51.192;6.788;2022-08-06T07:43:31;24.20;75.50
909;DHT22;441;51.192;6.788;2022-08-06T07:46:02;24.20;74.30
909;DHT22;441;51.192;6.788;2022-08-06T07:48:32;24.30;74.70
909;DHT22;441;51.192;6.788;2022-08-06T07:51:02;24.30;73.70
909;DHT22;441;51.192;6.788;2022-08-06T07:53:30;24.30;73.50
909;DHT22;441;51.192;6.788;2022-08-06T07:55:58;24.40;73.20
909;DHT22;441;51.192;6.788;2022-08-06T07:58:26;24.40;72.70
909;DHT22;441;51.192;6.788;2022-08-06T08:00:54;24.40;72.70
909;DHT22;441;51.192;6.788;2022-08-06T08:03:22;24.50;72.40
909;DHT22;441;51.192;6.788;2022-08-06T08:06:07;24.50;71.70
909;DHT22;441;51.192;6.788;2022-08-06T08:08:44;24.50;72.20
909;DHT22;441;51.192;6.788;2022-08-06T08:11:13;24.50;72.50
909;DHT22;441;51.192;6.788;2022-08-06T08:13:41;24.50;72.90
909;DHT22;441;51.192;6.788;2022-08-06T08:16:14;24.50;71.90
909;DHT22;441;51.192;6.788;2022-08-06T08:18:41;24.60;71.90
909;DHT22;441;51.192;6.788;2022-08-06T08:21:09;24.60;71.30
909;DHT22;441;51.192;6.788;2022-08-06T08:23:38;24.60;71.40
909;DHT22;441;51.192;6.788;2022-08-06T08:26:06;24.60;71.70
909;DHT22;441;51.192;6.788;2022-08-06T08:28:33;24.60;70.70
909;DHT22;441;51.192;6.788;2022-08-06T08:31:03;24.70;71.50
909;DHT22;441;51.192;6.788;2022-08-06T08:33:35;24.70;71.30
909;DHT22;441;51.192;6.788;2022-08-06T08:36:03;24.70;71.50
909;DHT22;441;51.192;6.788;2022-08-06T08:38:31;24.70;71.20
909;DHT22;441;51.192;6.788;2022-08-06T08:41:01;24.70;71.10
909;DHT22;441;51.192;6.788;2022-08-06T08:43:34;24.70;71.10
909;DHT22;441;51.192;6.788;2022-08-06T08:46:03;24.70;71.50
909;DHT22;441;51.192;6.788;2022-08-06T08:48:31;24.70;71.80
909;DHT22;441;51.192;6.788;2022-08-06T08:50:59;24.80;70.90
909;DHT22;441;51.192;6.788;2022-08-06T08:53:33;24.80;70.60
909;DHT22;441;51.192;6.788;2022-08-06T08:56:02;24.80;70.90
909;DHT22;441;51.192;6.788;2022-08-06T08:58:30;24.80;70.90
909;DHT22;441;51.192;6.788;2022-08-06T09:01:05;24.80;71.00
909;DHT22;441;51.192;6.788;2022-08-06T09:03:34;24.80;70.30
909;DHT22;441;51.192;6.788;2022-08-06T09:06:04;24.90;70.30
909;DHT22;441;51.192;6.788;2022-08-06T09:08:31;24.90;71.90
909;DHT22;441;51.192;6.788;2022-08-06T09:10:59;24.90;71.00
909;DHT22;441;51.192;6.788;2022-08-06T09:13:26;24.90;71.40
909;DHT22;441;51.192;6.788;2022-08-06T09:15:54;24.90;70.20
909;DHT22;441;51.192;6.788;2022-08-06T09:18:21;24.90;70.90
909;DHT22;441;51.192;6.788;2022-08-06T09:20:49;24.90;70.30
909;DHT22;441;51.192;6.788;2022-08-06T09:23:18;25.00;70.20
909;DHT22;441;51.192;6.788;2022-08-06T09:25:46;24.90;70.40
909;DHT22;441;51.192;6.788;2022-08-06T09:28:28;24.90;70.50
909;DHT22;441;51.192;6.788;2022-08-06T09:30:58;24.90;70.90
909;DHT22;441;51.192;6.788;2022-08-06T09:33:26;24.90;72.00
